Bjaeverskov, Denmark
Current Conditions -  °F | °C
As of 3:20 PM on Thursday 27 Nov 2014 (Local Time) from EKRK Reporting Station
Few Clouds Few Clouds  
Wind Chill: 35°   Ceiling: Unl
Heat Index: 43°   Visibility: 6mi
Dew Point: 34°   Wind: 15mph
Humidity: 70%   Direction: 130°SE
Pressure: 30.06"   Gusts: NA
Location:  55.46°N, 12.04°E
Report Text: EKRK 271420Z AUTO 13013KT 9999NDV FEW027/// 06/01 Q1018
Loading
Personal Weather Stations






























Interactive Weather Map New forecast layout! Learn more

10-Day Weather Forecast

Advertisements
Track Severe Weather on mobile